Seafrance Rodin — FOBQ — position and weather

sailwx.info

Track history (hours):
 
Tides and Currents Weather Stations Pressure Air Temp Water Temp Dewpoint Dewpoint Depression Visibility Wind Speed Wind Dir Waves Ship Positions

Seafrance Rodin

Operator: SeaFrance

Last reported at 2019-May-20 16:00 UTC. Time now 2019-May-20 16:28 UTC.
Position N 50°58' E 001°51'.

Length 185 m; draft 6 m.

Type: Ship (hazmat cat A). MMSI: 227022800.

Date/timePositionNaut miles runAvg speedWind from/ knotsBaromVisibWave heightAir tempDewpointWater temp
2019-May-20 16:00N 50°58' E 001°51'1 2.7
2019-May-20 15:31N 50°58' E 001°49'815.3
2019-May-20 15:00N 50°60' E 001°37'817.0
2019-May-20 14:30N 51°05' E 001°26'4 2.6
2019-May-20 13:09N 51°07' E 001°22'216.2
2019-May-20 13:00N 51°06' E 001°26'917.7
2019-May-20 12:31N 51°02' E 001°37'815.9
2019-May-20 12:00N 50°58' E 001°49'1 2.9
2019-May-20 11:31N 50°58' E 001°51'0 0.0
2019-May-20 11:00N 50°58' E 001°51'511.0
2019-May-20 10:30N 50°59' E 001°42'917.7
2019-May-20 10:00N 51°03' E 001°30'8 5.8
2019-May-20 08:43N 51°07' E 001°20'211.3
2019-May-20 08:31N 51°07' E 001°24'917.1
2019-May-20 08:00N 51°02' E 001°35'917.1
2019-May-20 07:30N 50°58' E 001°47'2 4.8
2019-May-20 07:00N 50°58' E 001°51'0 0.0
2019-May-20 06:30N 50°58' E 001°51'2 4.9
2019-May-20 06:01N 50°58' E 001°47'815.1
2019-May-20 05:30N 51°01' E 001°36'917.3
2019-May-20 05:00N 51°06' E 001°25'3 2.4
2019-May-20 03:44N 51°07' E 001°20'314.3
2019-May-20 03:30N 51°06' E 001°25'816.8
2019-May-20 03:00N 51°02' E 001°36'816.0
2019-May-20 02:30N 50°58' E 001°48'2 4.4
2019-May-20 02:00N 50°58' E 001°51'0 0.0
2019-May-20 01:30N 50°58' E 001°51'2 4.0
2019-May-20 01:00N 50°58' E 001°48'816.9
2019-May-20 00:30N 50°59' E 001°35'815.2
2019-May-20 00:00N 51°05' E 001°26'5 3.7
2019-May-19 22:47N 51°07' E 001°20'413.6
2019-May-19 22:31N 51°07' E 001°26'714.4
2019-May-19 22:01N 51°03' E 001°36'816.2
2019-May-19 21:31N 50°58' E 001°46'3 6.4
2019-May-19 21:00N 50°58' E 001°51'0 0.0
2019-May-19 20:30N 50°58' E 001°51'4 7.4
2019-May-19 20:01N 50°58' E 001°45'713.8
2019-May-19 19:30N 50°59' E 001°35'816.7
2019-May-19 19:00N 51°05' E 001°25'4 3.9
2019-May-19 18:02N 51°07' E 001°20'0 1.7
2019-May-19 17:58N 51°07' E 001°20'714.8
2019-May-19 17:30N 51°05' E 001°31'917.6
2019-May-19 17:00N 50°60' E 001°41'612.8
2019-May-19 16:30N 50°58' E 001°51'0 0.0
2019-May-19 16:00N 50°58' E 001°51'1 2.8
2019-May-19 15:31N 50°58' E 001°49'917.6
2019-May-19 15:00N 50°60' E 001°35'815.7
2019-May-19 14:30N 51°06' E 001°27'4 4.5
2019-May-19 13:30N 51°07' E 001°20'713.7
2019-May-19 13:01N 51°04' E 001°30'816.7
2019-May-19 12:30N 51°00' E 001°42'612.9
2019-May-19 12:00N 50°58' E 001°51'0 0.4
2019-May-19 11:29N 50°58' E 001°52'0 0.0
2019-May-19 11:00N 50°58' E 001°52'0 0.0
2019-May-19 10:31N 50°58' E 001°52'0 0.0
2019-May-19 09:55N 50°58' E 001°52'0 0.0
2019-May-19 09:30N 50°58' E 001°52'0 0.0
2019-May-19 09:00N 50°58' E 001°52'0 0.0
2019-May-19 08:31N 50°58' E 001°52'0 0.0
2019-May-19 08:00N 50°58' E 001°52'0 0.0
2019-May-19 07:30N 50°58' E 001°52'0 0.0
2019-May-19 07:01N 50°58' E 001°52'0 0.0
2019-May-19 06:30N 50°58' E 001°52'0 0.0
2019-May-19 06:00N 50°58' E 001°52'0 0.4
2019-May-19 05:31N 50°58' E 001°52'0 0.0
2019-May-19 05:00N 50°58' E 001°52'0 0.0
2019-May-19 04:30N 50°58' E 001°52'0 0.0
2019-May-19 04:00N 50°58' E 001°52'0 0.0
2019-May-19 03:30N 50°58' E 001°52'0 0.0
2019-May-19 03:00N 50°58' E 001°52'0 0.0
2019-May-19 02:30N 50°58' E 001°52'0 0.0
2019-May-19 02:00N 50°58' E 001°52'1 1.1
2019-May-19 01:31N 50°58' E 001°51'0 0.9
2019-May-19 01:00N 50°58' E 001°50'918.0
2019-May-19 00:31N 50°59' E 001°36'917.5
2019-May-19 00:00N 51°04' E 001°25'4 7.9
2019-May-18 23:28N 51°07' E 001°20'0 0.0
2019-May-18 23:00N 51°07' E 001°20'4 7.2
2019-May-18 22:30N 51°07' E 001°26'816.7
2019-May-18 22:00N 51°03' E 001°38'815.8
2019-May-18 21:30N 50°58' E 001°48'2 4.1
2019-May-18 21:01N 50°58' E 001°51'0 0.0
2019-May-18 20:31N 50°58' E 001°51'4 8.4
2019-May-18 20:00N 50°58' E 001°44'714.2
2019-May-18 19:30N 50°59' E 001°33'816.3
2019-May-18 19:00N 51°05' E 001°25'3 5.2
2019-May-18 18:21N 51°07' E 001°20'0 0.3
2019-May-18 18:00N 51°07' E 001°20'713.6
2019-May-18 17:31N 51°04' E 001°30'917.9
2019-May-18 17:01N 50°59' E 001°42'612.3
2019-May-18 16:30N 50°58' E 001°51'0 0.0
2019-May-18 16:00N 50°58' E 001°51'1 1.8
2019-May-18 15:30N 50°58' E 001°50'714.8
2019-May-18 15:01N 50°59' E 001°38'816.7
2019-May-18 14:30N 51°04' E 001°28'6 8.0
2019-May-18 13:47N 51°07' E 001°20'0 0.3
2019-May-18 13:21N 51°07' E 001°20'411.2
2019-May-18 13:01N 51°06' E 001°26'917.8
2019-May-18 12:30N 51°01' E 001°38'815.9
2019-May-18 12:00N 50°58' E 001°49'1 2.3
2019-May-18 11:30N 50°58' E 001°51'0 0.5
2019-May-18 11:01N 50°58' E 001°51'714.2
2019-May-18 10:30N 50°58' E 001°40'1019.4
2019-May-18 10:00N 51°03' E 001°26'6 8.9
2019-May-18 09:21N 51°07' E 001°20'0 0.0
2019-May-18 08:57N 51°07' E 001°20'3 7.3
2019-May-18 08:30N 51°07' E 001°25'816.6
2019-May-18 08:00N 51°02' E 001°36'917.2
2019-May-18 07:31N 50°58' E 001°48'2 3.9
2019-May-18 07:00N 50°58' E 001°51'0 0.0
2019-May-18 06:30N 50°58' E 001°51'3 6.5
2019-May-18 06:00N 50°58' E 001°46'815.4
2019-May-18 05:30N 51°00' E 001°35'917.1
2019-May-18 05:00N 51°06' E 001°24'3 4.5
2019-May-18 04:21N 51°07' E 001°20'1 1.0
2019-May-18 03:39N 51°07' E 001°21'216.7
2019-May-18 03:30N 51°07' E 001°25'917.0
2019-May-18 03:00N 51°02' E 001°36'816.6
2019-May-18 02:30N 50°58' E 001°48'2 4.4
2019-May-18 02:00N 50°58' E 001°51'0 0.0
2019-May-18 01:30N 50°58' E 001°51'3 6.7
2019-May-18 01:00N 50°58' E 001°46'816.5
2019-May-18 00:30N 51°01' E 001°34'715.0
2019-May-18 00:00N 51°06' E 001°25'4 3.4
2019-May-17 22:58N 51°07' E 001°20'3 7.2
2019-May-17 22:31N 51°07' E 001°25'816.2
2019-May-17 22:00N 51°02' E 001°36'815.9
2019-May-17 21:30N 50°58' E 001°47'3 5.5
2019-May-17 21:00N 50°58' E 001°51'0 0.0
2019-May-17 20:30N 50°58' E 001°51'4 8.6
2019-May-17 20:00N 50°58' E 001°44'815.1
2019-May-17 19:30N 50°59' E 001°32'917.3
2019-May-17 19:00N 51°05' E 001°24'3 2.9
2019-May-17 17:58N 51°07' E 001°20'613.0
2019-May-17 17:30N 51°05' E 001°29'917.2
2019-May-17 17:00N 51°00' E 001°40'714.4
2019-May-17 16:31N 50°58' E 001°51'0 0.0
2019-May-17 16:00N 50°58' E 001°51'3 5.9
2019-May-17 15:31N 50°58' E 001°47'816.4
2019-May-17 15:00N 50°60' E 001°34'918.6
2019-May-17 14:30N 51°06' E 001°23'2 1.6
2019-May-17 13:15N 51°07' E 001°21'314.5
2019-May-17 13:00N 51°07' E 001°26'917.9
2019-May-17 12:30N 51°02' E 001°38'816.2
2019-May-17 12:00N 50°58' E 001°50'1 2.1
2019-May-17 11:30N 50°58' E 001°51'0 0.1
2019-May-17 11:00N 50°58' E 001°51'611.7
2019-May-17 10:30N 50°58' E 001°42'917.3
2019-May-17 10:01N 51°02' E 001°30'7 5.1
2019-May-17 08:34N 51°07' E 001°22'117.3
2019-May-17 08:30N 51°07' E 001°23'918.7
2019-May-17 08:00N 51°02' E 001°36'917.9
2019-May-17 07:30N 50°58' E 001°49'2 3.1
2019-May-17 07:00N 50°58' E 001°51'0 0.0
2019-May-17 06:30N 50°58' E 001°51'3 6.9
2019-May-17 06:00N 50°58' E 001°46'714.8
2019-May-17 05:30N 51°01' E 001°35'816.5
2019-May-17 05:01N 51°06' E 001°24'3 1.9
2019-May-17 03:39N 51°07' E 001°21'317.8
2019-May-17 03:31N 51°07' E 001°25'917.4
2019-May-17 03:00N 51°02' E 001°37'816.9
2019-May-17 02:30N 50°58' E 001°49'1 2.9
2019-May-17 02:00N 50°58' E 001°51'0 0.0
2019-May-17 01:30N 50°58' E 001°51'2 3.6
2019-May-17 01:00N 50°58' E 001°48'918.5
2019-May-17 00:30N 50°58' E 001°34'815.9
2019-May-17 00:00N 51°04' E 001°26'5 5.7
2019-May-16 23:09N 51°07' E 001°20'0 0.5
2019-May-16 22:49N 51°07' E 001°20'413.9
2019-May-16 22:30N 51°07' E 001°27'816.0
2019-May-16 22:00N 51°02' E 001°38'815.5
2019-May-16 21:31N 50°58' E 001°48'2 3.9
2019-May-16 21:00N 50°58' E 001°51'0 0.0
2019-May-16 20:30N 50°58' E 001°51'3 6.7
2019-May-16 20:01N 50°58' E 001°46'816.9
2019-May-16 19:31N 51°01' E 001°33'917.2
2019-May-16 19:01N 51°06' E 001°23'2 2.6
2019-May-16 18:12N 51°07' E 001°20'1 5.4
2019-May-16 17:58N 51°07' E 001°22'918.9
2019-May-16 17:30N 51°03' E 001°34'1019.4
2019-May-16 17:00N 50°58' E 001°48'2 4.4
2019-May-16 16:30N 50°58' E 001°51'0 0.0
2019-May-16 16:00N 50°58' E 001°51'611.4
2019-May-16 15:31N 50°58' E 001°42'917.5
2019-May-16 15:01N 51°03' E 001°30'814.5
2019-May-16 14:27N 51°07' E 001°20'0 0.1
2019-May-16 13:23N 51°07' E 001°20'513.3
2019-May-16 13:01N 51°06' E 001°28'918.8
2019-May-16 12:30N 51°00' E 001°40'714.5
2019-May-16 12:00N 50°58' E 001°51'0 0.1
2019-May-16 11:30N 50°58' E 001°51'0 0.5
2019-May-16 11:00N 50°58' E 001°51'713.4
2019-May-16 10:29N 50°58' E 001°40'816.3
2019-May-16 10:00N 51°02' E 001°29'815.3
2019-May-16 09:30N 51°07' E 001°20'0 0.2
2019-May-16 08:58N 51°07' E 001°20'2 4.2
2019-May-16 08:30N 51°07' E 001°23'918.6
2019-May-16 08:00N 51°02' E 001°36'917.8
2019-May-16 07:30N 50°58' E 001°49'2 3.3
2019-May-16 07:00N 50°58' E 001°51'0 0.0
2019-May-16 06:30N 50°58' E 001°51'2 4.9
2019-May-16 06:01N 50°58' E 001°47'917.0
2019-May-16 05:30N 51°01' E 001°35'917.2
2019-May-16 05:00N 51°06' E 001°23'3 4.0
2019-May-16 04:21N 51°07' E 001°20'0 0.1
2019-May-16 03:48N 51°07' E 001°20'3 9.5
2019-May-16 03:30N 51°07' E 001°25'714.7
2019-May-16 03:00N 51°03' E 001°34'815.9
2019-May-16 02:30N 50°58' E 001°45'4 8.2
2019-May-16 02:00N 50°58' E 001°51'0 0.0
2019-May-16 01:30N 50°58' E 001°51'2 3.2
2019-May-16 01:00N 50°58' E 001°49'815.5
2019-May-16 00:30N 50°60' E 001°37'816.0
2019-May-16 00:01N 51°04' E 001°26'5 9.7
2019-May-15 23:30N 51°07' E 001°20'0 0.1
2019-May-15 22:51N 51°07' E 001°20'410.8
2019-May-15 22:30N 51°07' E 001°26'918.7
2019-May-15 22:00N 51°02' E 001°38'714.8
2019-May-15 21:31N 50°58' E 001°49'2 3.2
2019-May-15 21:00N 50°58' E 001°51'0 0.0
2019-May-15 20:31N 50°58' E 001°51'3 5.6
2019-May-15 20:00N 50°58' E 001°47'917.3
2019-May-15 19:30N 51°01' E 001°34'816.3
2019-May-15 19:00N 51°06' E 001°24'3 5.4
2019-May-15 18:30N 51°07' E 001°20'0 0.2
2019-May-15 18:00N 51°07' E 001°20'815.8
2019-May-15 17:30N 51°05' E 001°32'918.3
2019-May-15 17:01N 50°59' E 001°43'611.1
2019-May-15 16:30N 50°58' E 001°51'0 0.0
2019-May-15 16:00N 50°58' E 001°51'1 2.6
2019-May-15 15:30N 50°58' E 001°49'815.2
2019-May-15 15:01N 50°60' E 001°37'917.4
2019-May-15 14:31N 51°04' E 001°26'5 7.9
2019-May-15 13:55N 51°07' E 001°20'0 0.0
2019-May-15 13:21N 51°07' E 001°20'411.5
2019-May-15 13:00N 51°07' E 001°26'918.6
2019-May-15 12:30N 51°02' E 001°39'816.3
2019-May-15 12:00N 50°58' E 001°50'1 1.1
2019-May-15 11:30N 50°58' E 001°51'1 1.3
2019-May-15 11:00N 50°58' E 001°50'713.1
2019-May-15 10:31N 50°58' E 001°40'816.1
2019-May-15 10:01N 51°03' E 001°29'712.8
2019-May-15 09:26N 51°07' E 001°20'0 0.0
2019-May-15 08:48N 51°07' E 001°20'3 9.2
2019-May-15 08:31N 51°07' E 001°24'1019.1
2019-May-15 08:01N 51°02' E 001°37'816.6
2019-May-15 07:30N 50°58' E 001°49'1 2.5
2019-May-15 07:00N 50°58' E 001°51'0 0.0
2019-May-15 06:30N 50°58' E 001°51'4 8.8
2019-May-15 06:01N 50°58' E 001°44'816.7
2019-May-15 05:31N 51°01' E 001°32'917.0
2019-May-15 05:00N 51°07' E 001°22'1 1.6
2019-May-15 04:19N 51°07' E 001°20'0 0.0
2019-May-15 03:56N 51°07' E 001°20'3 7.1
2019-May-15 03:30N 51°06' E 001°25'816.1
2019-May-15 03:00N 51°02' E 001°35'816.7
2019-May-15 02:30N 50°58' E 001°47'3 5.2
2019-May-15 02:00N 50°58' E 001°51'0 0.0
2019-May-15 01:30N 50°58' E 001°51'2 4.6
2019-May-15 01:01N 50°58' E 001°48'714.8
2019-May-15 00:31N 51°00' E 001°36'816.5
2019-May-15 00:01N 51°05' E 001°26'4 6.2
2019-May-14 23:20N 51°07' E 001°20'0 0.0
2019-May-14 22:57N 51°07' E 001°20'3 7.9
2019-May-14 22:30N 51°07' E 001°26'816.3
2019-May-14 22:00N 51°02' E 001°36'816.1
2019-May-14 21:30N 50°58' E 001°47'2 4.9
2019-May-14 21:00N 50°58' E 001°51'0 0.0
2019-May-14 20:30N 50°58' E 001°51'3 5.4
2019-May-14 20:00N 50°58' E 001°47'816.5
2019-May-14 19:31N 51°01' E 001°35'816.4
2019-May-14 19:00N 51°06' E 001°24'3 3.0
2019-May-14 17:58N 51°07' E 001°20'613.2
2019-May-14 17:31N 51°05' E 001°29'917.7
2019-May-14 17:01N 51°00' E 001°41'713.8
2019-May-14 16:31N 50°58' E 001°51'0 0.0
2019-May-14 16:01N 50°58' E 001°51'2 3.5
2019-May-14 15:31N 50°58' E 001°48'815.8
2019-May-14 15:00N 50°59' E 001°36'917.9
2019-May-14 14:31N 51°05' E 001°25'4 3.3
2019-May-14 13:20N 51°07' E 001°20'3 9.6
2019-May-14 13:00N 51°06' E 001°25'917.9
2019-May-14 12:31N 51°02' E 001°37'917.0
2019-May-14 12:01N 50°58' E 001°50'1 1.9
2019-May-14 11:30N 50°58' E 001°51'1 1.5
2019-May-14 11:00N 50°58' E 001°50'713.8
2019-May-14 10:31N 50°58' E 001°39'816.0
2019-May-14 10:00N 51°03' E 001°29'710.9
2019-May-14 09:21N 51°07' E 001°20'1 1.3
2019-May-14 08:33N 51°07' E 001°22'114.8
2019-May-14 08:30N 51°07' E 001°23'816.4
2019-May-14 08:01N 51°03' E 001°34'816.6
2019-May-14 07:30N 50°58' E 001°45'4 8.0
2019-May-14 07:01N 50°58' E 001°51'0 0.0
2019-May-14 06:31N 50°58' E 001°51'1 2.8
2019-May-14 06:01N 50°58' E 001°49'817.0
2019-May-14 05:31N 50°60' E 001°36'816.8
2019-May-14 05:00N 51°05' E 001°26'4 4.5
2019-May-14 04:06N 51°07' E 001°20'0 0.4
2019-May-14 03:46N 51°07' E 001°20'415.6
2019-May-14 03:30N 51°06' E 001°26'917.6
2019-May-14 03:00N 51°00' E 001°38'815.5
2019-May-14 02:30N 50°58' E 001°49'1 2.3
2019-May-14 02:00N 50°58' E 001°51'0 0.0
2019-May-14 01:30N 50°58' E 001°51'3 5.5
2019-May-14 01:00N 50°58' E 001°47'815.2
2019-May-14 00:30N 50°60' E 001°35'816.6
2019-May-14 00:00N 51°05' E 001°25'4 2.8
2019-May-13 22:43N 51°07' E 001°21'314.8
2019-May-13 22:31N 51°07' E 001°25'816.0
2019-May-13 22:00N 51°02' E 001°36'815.8
2019-May-13 21:30N 50°58' E 001°46'3 6.1
2019-May-13 21:00N 50°58' E 001°51'0 0.0
2019-May-13 20:30N 50°58' E 001°51'5 9.9
2019-May-13 20:00N 50°58' E 001°43'816.2
2019-May-13 19:30N 51°02' E 001°32'714.7
2019-May-13 19:01N 51°06' E 001°23'2 2.5
2019-May-13 18:11N 51°07' E 001°20'0 0.7
2019-May-13 18:00N 51°07' E 001°20'613.1
2019-May-13 17:30N 51°05' E 001°30'816.6
2019-May-13 17:00N 51°01' E 001°41'714.0
2019-May-13 16:31N 50°58' E 001°51'0 0.1
2019-May-13 16:00N 50°58' E 001°51'1 2.2
2019-May-13 15:31N 50°58' E 001°50'815.1
2019-May-13 15:01N 50°59' E 001°38'816.3
2019-May-13 14:30N 51°03' E 001°27'6 4.8
2019-May-13 13:18N 51°07' E 001°20'311.6
2019-May-13 13:00N 51°06' E 001°26'917.3
2019-May-13 12:30N 51°01' E 001°36'816.9
2019-May-13 12:00N 50°58' E 001°49'1 2.7
2019-May-13 11:30N 50°58' E 001°51'1 1.9
2019-May-13 11:00N 50°58' E 001°50'612.4
2019-May-13 10:30N 50°59' E 001°40'815.6
2019-May-13 10:00N 51°03' E 001°30'7 5.2
2019-May-13 08:38N 51°07' E 001°21'215.4
2019-May-13 08:30N 51°07' E 001°23'816.1
2019-May-13 08:00N 51°03' E 001°35'816.3
2019-May-13 07:30N 50°58' E 001°45'4 7.9
2019-May-13 07:00N 50°58' E 001°51'0 0.0
2019-May-13 06:30N 50°58' E 001°51'2 4.8
2019-May-13 06:00N 50°58' E 001°47'917.8
2019-May-13 05:30N 51°00' E 001°34'917.6
2019-May-13 05:00N 51°06' E 001°23'2 1.5
2019-May-13 03:40N 51°07' E 001°21'214.1
2019-May-13 03:31N 51°07' E 001°24'815.3
2019-May-13 03:01N 51°03' E 001°35'816.7
2019-May-13 02:31N 50°58' E 001°45'4 7.0
2019-May-13 02:00N 50°58' E 001°51'0 0.0
2019-May-13 01:30N 50°58' E 001°51'3 5.8
2019-May-13 01:01N 50°58' E 001°46'815.5
2019-May-13 00:30N 50°59' E 001°34'815.6
2019-May-13 00:01N 51°05' E 001°26'4 3.0
2019-May-12 22:43N 51°07' E 001°21'315.0
2019-May-12 22:30N 51°07' E 001°25'815.9
2019-May-12 22:00N 51°03' E 001°36'816.0
2019-May-12 21:30N 50°58' E 001°47'3 5.8
2019-May-12 21:00N 50°58' E 001°51'0 0.0
2019-May-12 20:30N 50°58' E 001°51'5 9.5
2019-May-12 20:01N 50°58' E 001°44'816.6
2019-May-12 19:31N 51°02' E 001°32'9 7.5
2019-May-12 18:18N 51°07' E 001°21'515.7
2019-May-12 18:01N 51°06' E 001°28'1019.1
2019-May-12 17:30N 51°01' E 001°40'714.5
2019-May-12 17:01N 50°58' E 001°51'0 0.2
2019-May-12 16:30N 50°58' E 001°51'510.0
2019-May-12 16:00N 50°58' E 001°43'918.1
2019-May-12 15:30N 51°02' E 001°31'8 5.2
2019-May-12 13:58N 51°07' E 001°20'3 7.1
2019-May-12 13:31N 51°06' E 001°25'4 7.2
2019-May-12 13:00N 51°04' E 001°30'5 9.6
2019-May-12 12:30N 51°01' E 001°37'917.0
2019-May-12 12:01N 50°58' E 001°49'1 2.6
2019-May-12 11:30N 50°58' E 001°51'0 0.0
2019-May-12 11:01N 50°58' E 001°51'1 1.1
2019-May-12 10:30N 50°58' E 001°52'0 0.0
2019-May-12 10:01N 50°58' E 001°52'0 0.0
2019-May-12 09:31N 50°58' E 001°52'0 0.0
2019-May-12 09:00N 50°58' E 001°52'0 0.0
2019-May-12 08:30N 50°58' E 001°52'0 0.0
2019-May-12 08:00N 50°58' E 001°52'0 0.0
2019-May-12 07:30N 50°58' E 001°52'0 0.0
2019-May-12 07:01N 50°58' E 001°52'0 0.0
2019-May-12 06:31N 50°58' E 001°52'0 0.0
2019-May-12 06:00N 50°58' E 001°52'0 0.0
2019-May-12 05:31N 50°58' E 001°52'0 0.0
2019-May-12 05:01N 50°58' E 001°52'0 0.0
2019-May-12 04:31N 50°58' E 001°52'0 0.0
2019-May-12 04:01N 50°58' E 001°52'0 0.0
2019-May-12 03:31N 50°58' E 001°52'0 0.0
2019-May-12 03:00N 50°58' E 001°52'0 0.0
2019-May-12 02:31N 50°58' E 001°52'0 0.0
2019-May-12 02:01N 50°58' E 001°52'1 1.4
2019-May-12 01:31N 50°58' E 001°51'1 2.5
2019-May-12 01:00N 50°58' E 001°49'815.1
2019-May-12 00:30N 50°59' E 001°37'816.2
2019-May-12 00:00N 51°04' E 001°27'5 3.8
2019-May-11 22:39N 51°07' E 001°21'213.6
2019-May-11 22:31N 51°07' E 001°24'816.8
2019-May-11 22:00N 51°03' E 001°35'917.0
2019-May-11 21:30N 50°58' E 001°46'3 6.2
2019-May-11 21:00N 50°58' E 001°51'0 0.0
2019-May-11 20:30N 50°58' E 001°51'0 0.0
2019-May-11 20:00N 50°58' E 001°51'0 0.0
2019-May-11 19:30N 50°58' E 001°51'0 0.0
2019-May-11 19:00N 50°58' E 001°51'1 3.0
2019-May-11 18:30N 50°58' E 001°49'816.5
2019-May-11 18:00N 50°59' E 001°36'816.1
2019-May-11 17:30N 51°05' E 001°26'4 3.7
2019-May-11 16:20N 51°07' E 001°21'516.2
2019-May-11 16:01N 51°05' E 001°28'918.7
2019-May-11 15:30N 50°60' E 001°41'713.8
2019-May-11 15:01N 50°58' E 001°51'0 0.0
2019-May-11 14:30N 50°58' E 001°51'2 4.7
2019-May-11 14:00N 50°58' E 001°48'816.1
2019-May-11 13:30N 50°60' E 001°35'816.3
2019-May-11 13:00N 51°04' E 001°24'4 3.2
2019-May-11 11:48N 51°07' E 001°20'415.5
2019-May-11 11:31N 51°06' E 001°27'816.5
2019-May-11 11:00N 51°01' E 001°37'816.3
2019-May-11 10:31N 50°58' E 001°49'1 2.5
2019-May-11 10:01N 50°58' E 001°51'1 1.4
2019-May-11 09:30N 50°58' E 001°50'815.6
2019-May-11 09:00N 50°59' E 001°38'917.6
2019-May-11 08:30N 51°05' E 001°27'5 7.7
2019-May-11 07:51N 51°07' E 001°20'0 0.0
2019-May-11 07:12N 51°07' E 001°20'1 4.4
2019-May-11 06:56N 51°07' E 001°22'819.3
2019-May-11 06:31N 51°03' E 001°33'918.4
2019-May-11 06:01N 50°58' E 001°45'4 7.4
2019-May-11 05:30N 50°58' E 001°51'0 0.0
2019-May-11 05:00N 50°58' E 001°51'1 1.2
2019-May-11 04:30N 50°58' E 001°50'917.0
2019-May-11 04:00N 50°59' E 001°37'815.3
2019-May-11 03:31N 51°04' E 001°28'5 3.2
2019-May-11 01:55N 51°07' E 001°22'615.2
2019-May-11 01:30N 51°04' E 001°31'816.9
2019-May-11 01:00N 50°60' E 001°42'612.1
2019-May-11 00:30N 50°58' E 001°51'0 0.4
2019-May-11 00:01N 50°58' E 001°51'1 1.6
2019-May-10 23:30N 50°58' E 001°50'714.3
2019-May-10 23:01N 50°59' E 001°39'815.7
2019-May-10 22:30N 51°04' E 001°29'7 4.7
2019-May-10 21:07N 51°07' E 001°20'1 9.8
2019-May-10 21:00N 51°07' E 001°22'816.6
2019-May-10 20:31N 51°04' E 001°34'917.2
2019-May-10 20:00N 50°58' E 001°45'4 8.3
2019-May-10 19:30N 50°58' E 001°51'0 0.0
2019-May-10 19:00N 50°58' E 001°51'1 1.4
2019-May-10 18:30N 50°58' E 001°50'918.0
2019-May-10 18:01N 50°59' E 001°36'1019.5
2019-May-10 17:30N 51°05' E 001°24'3 5.6
2019-May-10 16:54N 51°07' E 001°20'0 0.1
2019-May-10 16:27N 51°07' E 001°20'512.1
2019-May-10 16:00N 51°06' E 001°28'  
Track history (hours):
 
Tides and Currents Weather Stations Pressure Air Temp Water Temp Dewpoint Dewpoint Depression Visibility Wind Speed Wind Dir Waves Ship Positions

Seafrance Rodin

Operator: SeaFrance

Last reported at 2019-May-20 16:00 UTC. Time now 2019-May-20 16:28 UTC.
Position N 50°58' E 001°51'.

Length 185 m; draft 6 m.

Type: Ship (hazmat cat A). MMSI: 227022800.

Date/timePositionNaut miles runAvg speedWind from/ knotsBaromVisibWave heightAir tempDewpointWater temp
2019-May-20 16:00N 50°58' E 001°51'1 2.7
2019-May-20 15:31N 50°58' E 001°49'815.3
2019-May-20 15:00N 50°60' E 001°37'817.0
2019-May-20 14:30N 51°05' E 001°26'4 2.6
2019-May-20 13:09N 51°07' E 001°22'216.2
2019-May-20 13:00N 51°06' E 001°26'917.7
2019-May-20 12:31N 51°02' E 001°37'815.9
2019-May-20 12:00N 50°58' E 001°49'1 2.9
2019-May-20 11:31N 50°58' E 001°51'0 0.0
2019-May-20 11:00N 50°58' E 001°51'511.0
2019-May-20 10:30N 50°59' E 001°42'917.7
2019-May-20 10:00N 51°03' E 001°30'8 5.8
2019-May-20 08:43N 51°07' E 001°20'211.3
2019-May-20 08:31N 51°07' E 001°24'917.1
2019-May-20 08:00N 51°02' E 001°35'917.1
2019-May-20 07:30N 50°58' E 001°47'2 4.8
2019-May-20 07:00N 50°58' E 001°51'0 0.0
2019-May-20 06:30N 50°58' E 001°51'2 4.9
2019-May-20 06:01N 50°58' E 001°47'815.1
2019-May-20 05:30N 51°01' E 001°36'917.3
2019-May-20 05:00N 51°06' E 001°25'3 2.4
2019-May-20 03:44N 51°07' E 001°20'314.3
2019-May-20 03:30N 51°06' E 001°25'816.8
2019-May-20 03:00N 51°02' E 001°36'816.0
2019-May-20 02:30N 50°58' E 001°48'2 4.4
2019-May-20 02:00N 50°58' E 001°51'0 0.0
2019-May-20 01:30N 50°58' E 001°51'2 4.0
2019-May-20 01:00N 50°58' E 001°48'816.9
2019-May-20 00:30N 50°59' E 001°35'815.2
2019-May-20 00:00N 51°05' E 001°26'5 3.7
2019-May-19 22:47N 51°07' E 001°20'413.6
2019-May-19 22:31N 51°07' E 001°26'714.4
2019-May-19 22:01N 51°03' E 001°36'816.2
2019-May-19 21:31N 50°58' E 001°46'3 6.4
2019-May-19 21:00N 50°58' E 001°51'0 0.0
2019-May-19 20:30N 50°58' E 001°51'4 7.4
2019-May-19 20:01N 50°58' E 001°45'713.8
2019-May-19 19:30N 50°59' E 001°35'816.7
2019-May-19 19:00N 51°05' E 001°25'4 3.9
2019-May-19 18:02N 51°07' E 001°20'0 1.7
2019-May-19 17:58N 51°07' E 001°20'714.8
2019-May-19 17:30N 51°05' E 001°31'917.6
2019-May-19 17:00N 50°60' E 001°41'612.8
2019-May-19 16:30N 50°58' E 001°51'0 0.0
2019-May-19 16:00N 50°58' E 001°51'1 2.8
2019-May-19 15:31N 50°58' E 001°49'917.6
2019-May-19 15:00N 50°60' E 001°35'815.7
2019-May-19 14:30N 51°06' E 001°27'4 4.5
2019-May-19 13:30N 51°07' E 001°20'713.7
2019-May-19 13:01N 51°04' E 001°30'816.7
2019-May-19 12:30N 51°00' E 001°42'612.9
2019-May-19 12:00N 50°58' E 001°51'0 0.4
2019-May-19 11:29N 50°58' E 001°52'0 0.0
2019-May-19 11:00N 50°58' E 001°52'0 0.0
2019-May-19 10:31N 50°58' E 001°52'0 0.0
2019-May-19 09:55N 50°58' E 001°52'0 0.0
2019-May-19 09:30N 50°58' E 001°52'0 0.0
2019-May-19 09:00N 50°58' E 001°52'0 0.0
2019-May-19 08:31N 50°58' E 001°52'0 0.0
2019-May-19 08:00N 50°58' E 001°52'0 0.0
2019-May-19 07:30N 50°58' E 001°52'0 0.0
2019-May-19 07:01N 50°58' E 001°52'0 0.0
2019-May-19 06:30N 50°58' E 001°52'0 0.0
2019-May-19 06:00N 50°58' E 001°52'0 0.4
2019-May-19 05:31N 50°58' E 001°52'0 0.0
2019-May-19 05:00N 50°58' E 001°52'0 0.0
2019-May-19 04:30N 50°58' E 001°52'0 0.0
2019-May-19 04:00N 50°58' E 001°52'0 0.0
2019-May-19 03:30N 50°58' E 001°52'0 0.0
2019-May-19 03:00N 50°58' E 001°52'0 0.0
2019-May-19 02:30N 50°58' E 001°52'0 0.0
2019-May-19 02:00N 50°58' E 001°52'1 1.1
2019-May-19 01:31N 50°58' E 001°51'0 0.9
2019-May-19 01:00N 50°58' E 001°50'918.0
2019-May-19 00:31N 50°59' E 001°36'917.5
2019-May-19 00:00N 51°04' E 001°25'4 7.9
2019-May-18 23:28N 51°07' E 001°20'0 0.0
2019-May-18 23:00N 51°07' E 001°20'4 7.2
2019-May-18 22:30N 51°07' E 001°26'816.7
2019-May-18 22:00N 51°03' E 001°38'815.8
2019-May-18 21:30N 50°58' E 001°48'2 4.1
2019-May-18 21:01N 50°58' E 001°51'0 0.0
2019-May-18 20:31N 50°58' E 001°51'4 8.4
2019-May-18 20:00N 50°58' E 001°44'714.2
2019-May-18 19:30N 50°59' E 001°33'816.3
2019-May-18 19:00N 51°05' E 001°25'3 5.2
2019-May-18 18:21N 51°07' E 001°20'0 0.3
2019-May-18 18:00N 51°07' E 001°20'713.6
2019-May-18 17:31N 51°04' E 001°30'917.9
2019-May-18 17:01N 50°59' E 001°42'612.3
2019-May-18 16:30N 50°58' E 001°51'0 0.0
2019-May-18 16:00N 50°58' E 001°51'1 1.8
2019-May-18 15:30N 50°58' E 001°50'714.8
2019-May-18 15:01N 50°59' E 001°38'816.7
2019-May-18 14:30N 51°04' E 001°28'6 8.0
2019-May-18 13:47N 51°07' E 001°20'0 0.3
2019-May-18 13:21N 51°07' E 001°20'411.2
2019-May-18 13:01N 51°06' E 001°26'917.8
2019-May-18 12:30N 51°01' E 001°38'815.9
2019-May-18 12:00N 50°58' E 001°49'1 2.3
2019-May-18 11:30N 50°58' E 001°51'0 0.5
2019-May-18 11:01N 50°58' E 001°51'714.2
2019-May-18 10:30N 50°58' E 001°40'1019.4
2019-May-18 10:00N 51°03' E 001°26'6 8.9
2019-May-18 09:21N 51°07' E 001°20'0 0.0
2019-May-18 08:57N 51°07' E 001°20'3 7.3
2019-May-18 08:30N 51°07' E 001°25'816.6
2019-May-18 08:00N 51°02' E 001°36'917.2
2019-May-18 07:31N 50°58' E 001°48'2 3.9
2019-May-18 07:00N 50°58' E 001°51'0 0.0
2019-May-18 06:30N 50°58' E 001°51'3 6.5
2019-May-18 06:00N 50°58' E 001°46'815.4
2019-May-18 05:30N 51°00' E 001°35'917.1
2019-May-18 05:00N 51°06' E 001°24'3 4.5
2019-May-18 04:21N 51°07' E 001°20'1 1.0
2019-May-18 03:39N 51°07' E 001°21'216.7
2019-May-18 03:30N 51°07' E 001°25'917.0
2019-May-18 03:00N 51°02' E 001°36'816.6
2019-May-18 02:30N 50°58' E 001°48'2 4.4
2019-May-18 02:00N 50°58' E 001°51'0 0.0
2019-May-18 01:30N 50°58' E 001°51'3 6.7
2019-May-18 01:00N 50°58' E 001°46'816.5
2019-May-18 00:30N 51°01' E 001°34'715.0
2019-May-18 00:00N 51°06' E 001°25'4 3.4
2019-May-17 22:58N 51°07' E 001°20'3 7.2
2019-May-17 22:31N 51°07' E 001°25'816.2
2019-May-17 22:00N 51°02' E 001°36'815.9
2019-May-17 21:30N 50°58' E 001°47'3 5.5
2019-May-17 21:00N 50°58' E 001°51'0 0.0
2019-May-17 20:30N 50°58' E 001°51'4 8.6
2019-May-17 20:00N 50°58' E 001°44'815.1
2019-May-17 19:30N 50°59' E 001°32'917.3
2019-May-17 19:00N 51°05' E 001°24'3 2.9
2019-May-17 17:58N 51°07' E 001°20'613.0
2019-May-17 17:30N 51°05' E 001°29'917.2
2019-May-17 17:00N 51°00' E 001°40'714.4
2019-May-17 16:31N 50°58' E 001°51'0 0.0
2019-May-17 16:00N 50°58' E 001°51'3 5.9
2019-May-17 15:31N 50°58' E 001°47'816.4
2019-May-17 15:00N 50°60' E 001°34'918.6
2019-May-17 14:30N 51°06' E 001°23'2 1.6
2019-May-17 13:15N 51°07' E 001°21'314.5
2019-May-17 13:00N 51°07' E 001°26'917.9
2019-May-17 12:30N 51°02' E 001°38'816.2
2019-May-17 12:00N 50°58' E 001°50'1 2.1
2019-May-17 11:30N 50°58' E 001°51'0 0.1
2019-May-17 11:00N 50°58' E 001°51'611.7
2019-May-17 10:30N 50°58' E 001°42'917.3
2019-May-17 10:01N 51°02' E 001°30'7 5.1
2019-May-17 08:34N 51°07' E 001°22'117.3
2019-May-17 08:30N 51°07' E 001°23'918.7
2019-May-17 08:00N 51°02' E 001°36'917.9
2019-May-17 07:30N 50°58' E 001°49'2 3.1
2019-May-17 07:00N 50°58' E 001°51'0 0.0
2019-May-17 06:30N 50°58' E 001°51'3 6.9
2019-May-17 06:00N 50°58' E 001°46'714.8
2019-May-17 05:30N 51°01' E 001°35'816.5
2019-May-17 05:01N 51°06' E 001°24'3 1.9
2019-May-17 03:39N 51°07' E 001°21'317.8
2019-May-17 03:31N 51°07' E 001°25'917.4
2019-May-17 03:00N 51°02' E 001°37'816.9
2019-May-17 02:30N 50°58' E 001°49'1 2.9
2019-May-17 02:00N 50°58' E 001°51'0 0.0
2019-May-17 01:30N 50°58' E 001°51'2 3.6
2019-May-17 01:00N 50°58' E 001°48'918.5
2019-May-17 00:30N 50°58' E 001°34'815.9
2019-May-17 00:00N 51°04' E 001°26'5 5.7
2019-May-16 23:09N 51°07' E 001°20'0 0.5
2019-May-16 22:49N 51°07' E 001°20'413.9
2019-May-16 22:30N 51°07' E 001°27'816.0
2019-May-16 22:00N 51°02' E 001°38'815.5
2019-May-16 21:31N 50°58' E 001°48'2 3.9
2019-May-16 21:00N 50°58' E 001°51'0 0.0
2019-May-16 20:30N 50°58' E 001°51'3 6.7
2019-May-16 20:01N 50°58' E 001°46'816.9
2019-May-16 19:31N 51°01' E 001°33'917.2
2019-May-16 19:01N 51°06' E 001°23'2 2.6
2019-May-16 18:12N 51°07' E 001°20'1 5.4
2019-May-16 17:58N 51°07' E 001°22'918.9
2019-May-16 17:30N 51°03' E 001°34'1019.4
2019-May-16 17:00N 50°58' E 001°48'2 4.4
2019-May-16 16:30N 50°58' E 001°51'0 0.0
2019-May-16 16:00N 50°58' E 001°51'611.4
2019-May-16 15:31N 50°58' E 001°42'917.5
2019-May-16 15:01N 51°03' E 001°30'814.5
2019-May-16 14:27N 51°07' E 001°20'0 0.1
2019-May-16 13:23N 51°07' E 001°20'513.3
2019-May-16 13:01N 51°06' E 001°28'918.8
2019-May-16 12:30N 51°00' E 001°40'714.5
2019-May-16 12:00N 50°58' E 001°51'0 0.1
2019-May-16 11:30N 50°58' E 001°51'0 0.5
2019-May-16 11:00N 50°58' E 001°51'713.4
2019-May-16 10:29N 50°58' E 001°40'816.3
2019-May-16 10:00N 51°02' E 001°29'815.3
2019-May-16 09:30N 51°07' E 001°20'0 0.2
2019-May-16 08:58N 51°07' E 001°20'2 4.2
2019-May-16 08:30N 51°07' E 001°23'918.6
2019-May-16 08:00N 51°02' E 001°36'917.8
2019-May-16 07:30N 50°58' E 001°49'2 3.3
2019-May-16 07:00N 50°58' E 001°51'0 0.0
2019-May-16 06:30N 50°58' E 001°51'2 4.9
2019-May-16 06:01N 50°58' E 001°47'917.0
2019-May-16 05:30N 51°01' E 001°35'917.2
2019-May-16 05:00N 51°06' E 001°23'3 4.0
2019-May-16 04:21N 51°07' E 001°20'0 0.1
2019-May-16 03:48N 51°07' E 001°20'3 9.5
2019-May-16 03:30N 51°07' E 001°25'714.7
2019-May-16 03:00N 51°03' E 001°34'815.9
2019-May-16 02:30N 50°58' E 001°45'4 8.2
2019-May-16 02:00N 50°58' E 001°51'0 0.0
2019-May-16 01:30N 50°58' E 001°51'2 3.2
2019-May-16 01:00N 50°58' E 001°49'815.5
2019-May-16 00:30N 50°60' E 001°37'816.0
2019-May-16 00:01N 51°04' E 001°26'5 9.7
2019-May-15 23:30N 51°07' E 001°20'0 0.1
2019-May-15 22:51N 51°07' E 001°20'410.8
2019-May-15 22:30N 51°07' E 001°26'918.7
2019-May-15 22:00N 51°02' E 001°38'714.8
2019-May-15 21:31N 50°58' E 001°49'2 3.2
2019-May-15 21:00N 50°58' E 001°51'0 0.0
2019-May-15 20:31N 50°58' E 001°51'3 5.6
2019-May-15 20:00N 50°58' E 001°47'917.3
2019-May-15 19:30N 51°01' E 001°34'816.3
2019-May-15 19:00N 51°06' E 001°24'3 5.4
2019-May-15 18:30N 51°07' E 001°20'0 0.2
2019-May-15 18:00N 51°07' E 001°20'815.8
2019-May-15 17:30N 51°05' E 001°32'918.3
2019-May-15 17:01N 50°59' E 001°43'611.1
2019-May-15 16:30N 50°58' E 001°51'0 0.0
2019-May-15 16:00N 50°58' E 001°51'1 2.6
2019-May-15 15:30N 50°58' E 001°49'815.2
2019-May-15 15:01N 50°60' E 001°37'917.4
2019-May-15 14:31N 51°04' E 001°26'5 7.9
2019-May-15 13:55N 51°07' E 001°20'0 0.0
2019-May-15 13:21N 51°07' E 001°20'411.5
2019-May-15 13:00N 51°07' E 001°26'918.6
2019-May-15 12:30N 51°02' E 001°39'816.3
2019-May-15 12:00N 50°58' E 001°50'1 1.1
2019-May-15 11:30N 50°58' E 001°51'1 1.3
2019-May-15 11:00N 50°58' E 001°50'713.1
2019-May-15 10:31N 50°58' E 001°40'816.1
2019-May-15 10:01N 51°03' E 001°29'712.8
2019-May-15 09:26N 51°07' E 001°20'0 0.0
2019-May-15 08:48N 51°07' E 001°20'3 9.2
2019-May-15 08:31N 51°07' E 001°24'1019.1
2019-May-15 08:01N 51°02' E 001°37'816.6
2019-May-15 07:30N 50°58' E 001°49'1 2.5
2019-May-15 07:00N 50°58' E 001°51'0 0.0
2019-May-15 06:30N 50°58' E 001°51'4 8.8
2019-May-15 06:01N 50°58' E 001°44'816.7
2019-May-15 05:31N 51°01' E 001°32'917.0
2019-May-15 05:00N 51°07' E 001°22'1 1.6
2019-May-15 04:19N 51°07' E 001°20'0 0.0
2019-May-15 03:56N 51°07' E 001°20'3 7.1
2019-May-15 03:30N 51°06' E 001°25'816.1
2019-May-15 03:00N 51°02' E 001°35'816.7
2019-May-15 02:30N 50°58' E 001°47'3 5.2
2019-May-15 02:00N 50°58' E 001°51'0 0.0
2019-May-15 01:30N 50°58' E 001°51'2 4.6
2019-May-15 01:01N 50°58' E 001°48'714.8
2019-May-15 00:31N 51°00' E 001°36'816.5
2019-May-15 00:01N 51°05' E 001°26'4 6.2
2019-May-14 23:20N 51°07' E 001°20'0 0.0
2019-May-14 22:57N 51°07' E 001°20'3 7.9
2019-May-14 22:30N 51°07' E 001°26'816.3
2019-May-14 22:00N 51°02' E 001°36'816.1
2019-May-14 21:30N 50°58' E 001°47'2 4.9
2019-May-14 21:00N 50°58' E 001°51'0 0.0
2019-May-14 20:30N 50°58' E 001°51'3 5.4
2019-May-14 20:00N 50°58' E 001°47'816.5
2019-May-14 19:31N 51°01' E 001°35'816.4
2019-May-14 19:00N 51°06' E 001°24'3 3.0
2019-May-14 17:58N 51°07' E 001°20'613.2
2019-May-14 17:31N 51°05' E 001°29'917.7
2019-May-14 17:01N 51°00' E 001°41'713.8
2019-May-14 16:31N 50°58' E 001°51'0 0.0
2019-May-14 16:01N 50°58' E 001°51'2 3.5
2019-May-14 15:31N 50°58' E 001°48'815.8
2019-May-14 15:00N 50°59' E 001°36'917.9
2019-May-14 14:31N 51°05' E 001°25'4 3.3
2019-May-14 13:20N 51°07' E 001°20'3 9.6
2019-May-14 13:00N 51°06' E 001°25'917.9
2019-May-14 12:31N 51°02' E 001°37'917.0
2019-May-14 12:01N 50°58' E 001°50'1 1.9
2019-May-14 11:30N 50°58' E 001°51'1 1.5
2019-May-14 11:00N 50°58' E 001°50'713.8
2019-May-14 10:31N 50°58' E 001°39'816.0
2019-May-14 10:00N 51°03' E 001°29'710.9
2019-May-14 09:21N 51°07' E 001°20'1 1.3
2019-May-14 08:33N 51°07' E 001°22'114.8
2019-May-14 08:30N 51°07' E 001°23'816.4
2019-May-14 08:01N 51°03' E 001°34'816.6
2019-May-14 07:30N 50°58' E 001°45'4 8.0
2019-May-14 07:01N 50°58' E 001°51'0 0.0
2019-May-14 06:31N 50°58' E 001°51'1 2.8
2019-May-14 06:01N 50°58' E 001°49'817.0
2019-May-14 05:31N 50°60' E 001°36'816.8
2019-May-14 05:00N 51°05' E 001°26'4 4.5
2019-May-14 04:06N 51°07' E 001°20'0 0.4
2019-May-14 03:46N 51°07' E 001°20'415.6
2019-May-14 03:30N 51°06' E 001°26'917.6
2019-May-14 03:00N 51°00' E 001°38'815.5
2019-May-14 02:30N 50°58' E 001°49'1 2.3
2019-May-14 02:00N 50°58' E 001°51'0 0.0
2019-May-14 01:30N 50°58' E 001°51'3 5.5
2019-May-14 01:00N 50°58' E 001°47'815.2
2019-May-14 00:30N 50°60' E 001°35'816.6
2019-May-14 00:00N 51°05' E 001°25'4 2.8
2019-May-13 22:43N 51°07' E 001°21'314.8
2019-May-13 22:31N 51°07' E 001°25'816.0
2019-May-13 22:00N 51°02' E 001°36'815.8
2019-May-13 21:30N 50°58' E 001°46'3 6.1
2019-May-13 21:00N 50°58' E 001°51'0 0.0
2019-May-13 20:30N 50°58' E 001°51'5 9.9
2019-May-13 20:00N 50°58' E 001°43'816.2
2019-May-13 19:30N 51°02' E 001°32'714.7
2019-May-13 19:01N 51°06' E 001°23'2 2.5
2019-May-13 18:11N 51°07' E 001°20'0 0.7
2019-May-13 18:00N 51°07' E 001°20'613.1
2019-May-13 17:30N 51°05' E 001°30'816.6
2019-May-13 17:00N 51°01' E 001°41'714.0
2019-May-13 16:31N 50°58' E 001°51'0 0.1
2019-May-13 16:00N 50°58' E 001°51'1 2.2
2019-May-13 15:31N 50°58' E 001°50'815.1
2019-May-13 15:01N 50°59' E 001°38'816.3
2019-May-13 14:30N 51°03' E 001°27'6 4.8
2019-May-13 13:18N 51°07' E 001°20'311.6
2019-May-13 13:00N 51°06' E 001°26'917.3
2019-May-13 12:30N 51°01' E 001°36'816.9
2019-May-13 12:00N 50°58' E 001°49'1 2.7
2019-May-13 11:30N 50°58' E 001°51'1 1.9
2019-May-13 11:00N 50°58' E 001°50'612.4
2019-May-13 10:30N 50°59' E 001°40'815.6
2019-May-13 10:00N 51°03' E 001°30'7 5.2
2019-May-13 08:38N 51°07' E 001°21'215.4
2019-May-13 08:30N 51°07' E 001°23'816.1
2019-May-13 08:00N 51°03' E 001°35'816.3
2019-May-13 07:30N 50°58' E 001°45'4 7.9
2019-May-13 07:00N 50°58' E 001°51'0 0.0
2019-May-13 06:30N 50°58' E 001°51'2 4.8
2019-May-13 06:00N 50°58' E 001°47'917.8
2019-May-13 05:30N 51°00' E 001°34'917.6
2019-May-13 05:00N 51°06' E 001°23'2 1.5
2019-May-13 03:40N 51°07' E 001°21'214.1
2019-May-13 03:31N 51°07' E 001°24'815.3
2019-May-13 03:01N 51°03' E 001°35'816.7
2019-May-13 02:31N 50°58' E 001°45'4 7.0
2019-May-13 02:00N 50°58' E 001°51'0 0.0
2019-May-13 01:30N 50°58' E 001°51'3 5.8
2019-May-13 01:01N 50°58' E 001°46'815.5
2019-May-13 00:30N 50°59' E 001°34'815.6
2019-May-13 00:01N 51°05' E 001°26'4 3.0
2019-May-12 22:43N 51°07' E 001°21'315.0
2019-May-12 22:30N 51°07' E 001°25'815.9
2019-May-12 22:00N 51°03' E 001°36'816.0
2019-May-12 21:30N 50°58' E 001°47'3 5.8
2019-May-12 21:00N 50°58' E 001°51'0 0.0
2019-May-12 20:30N 50°58' E 001°51'5 9.5
2019-May-12 20:01N 50°58' E 001°44'816.6
2019-May-12 19:31N 51°02' E 001°32'9 7.5
2019-May-12 18:18N 51°07' E 001°21'515.7
2019-May-12 18:01N 51°06' E 001°28'1019.1
2019-May-12 17:30N 51°01' E 001°40'714.5
2019-May-12 17:01N 50°58' E 001°51'0 0.2
2019-May-12 16:30N 50°58' E 001°51'510.0
2019-May-12 16:00N 50°58' E 001°43'918.1
2019-May-12 15:30N 51°02' E 001°31'8 5.2
2019-May-12 13:58N 51°07' E 001°20'3 7.1
2019-May-12 13:31N 51°06' E 001°25'4 7.2
2019-May-12 13:00N 51°04' E 001°30'5 9.6
2019-May-12 12:30N 51°01' E 001°37'917.0
2019-May-12 12:01N 50°58' E 001°49'1 2.6
2019-May-12 11:30N 50°58' E 001°51'0 0.0
2019-May-12 11:01N 50°58' E 001°51'1 1.1
2019-May-12 10:30N 50°58' E 001°52'0 0.0
2019-May-12 10:01N 50°58' E 001°52'0 0.0
2019-May-12 09:31N 50°58' E 001°52'0 0.0
2019-May-12 09:00N 50°58' E 001°52'0 0.0
2019-May-12 08:30N 50°58' E 001°52'0 0.0
2019-May-12 08:00N 50°58' E 001°52'0 0.0
2019-May-12 07:30N 50°58' E 001°52'0 0.0
2019-May-12 07:01N 50°58' E 001°52'0 0.0
2019-May-12 06:31N 50°58' E 001°52'0 0.0
2019-May-12 06:00N 50°58' E 001°52'0 0.0
2019-May-12 05:31N 50°58' E 001°52'0 0.0
2019-May-12 05:01N 50°58' E 001°52'0 0.0
2019-May-12 04:31N 50°58' E 001°52'0 0.0
2019-May-12 04:01N 50°58' E 001°52'0 0.0
2019-May-12 03:31N 50°58' E 001°52'0 0.0
2019-May-12 03:00N 50°58' E 001°52'0 0.0
2019-May-12 02:31N 50°58' E 001°52'0 0.0
2019-May-12 02:01N 50°58' E 001°52'1 1.4
2019-May-12 01:31N 50°58' E 001°51'1 2.5
2019-May-12 01:00N 50°58' E 001°49'815.1
2019-May-12 00:30N 50°59' E 001°37'816.2
2019-May-12 00:00N 51°04' E 001°27'5 3.8
2019-May-11 22:39N 51°07' E 001°21'213.6
2019-May-11 22:31N 51°07' E 001°24'816.8
2019-May-11 22:00N 51°03' E 001°35'917.0
2019-May-11 21:30N 50°58' E 001°46'3 6.2
2019-May-11 21:00N 50°58' E 001°51'0 0.0
2019-May-11 20:30N 50°58' E 001°51'0 0.0
2019-May-11 20:00N 50°58' E 001°51'0 0.0
2019-May-11 19:30N 50°58' E 001°51'0 0.0
2019-May-11 19:00N 50°58' E 001°51'1 3.0
2019-May-11 18:30N 50°58' E 001°49'816.5
2019-May-11 18:00N 50°59' E 001°36'816.1
2019-May-11 17:30N 51°05' E 001°26'4 3.7
2019-May-11 16:20N 51°07' E 001°21'516.2
2019-May-11 16:01N 51°05' E 001°28'918.7
2019-May-11 15:30N 50°60' E 001°41'713.8
2019-May-11 15:01N 50°58' E 001°51'0 0.0
2019-May-11 14:30N 50°58' E 001°51'2 4.7
2019-May-11 14:00N 50°58' E 001°48'816.1
2019-May-11 13:30N 50°60' E 001°35'816.3
2019-May-11 13:00N 51°04' E 001°24'4 3.2
2019-May-11 11:48N 51°07' E 001°20'415.5
2019-May-11 11:31N 51°06' E 001°27'816.5
2019-May-11 11:00N 51°01' E 001°37'816.3
2019-May-11 10:31N 50°58' E 001°49'1 2.5
2019-May-11 10:01N 50°58' E 001°51'1 1.4
2019-May-11 09:30N 50°58' E 001°50'815.6
2019-May-11 09:00N 50°59' E 001°38'917.6
2019-May-11 08:30N 51°05' E 001°27'5 7.7
2019-May-11 07:51N 51°07' E 001°20'0 0.0
2019-May-11 07:12N 51°07' E 001°20'1 4.4
2019-May-11 06:56N 51°07' E 001°22'819.3
2019-May-11 06:31N 51°03' E 001°33'918.4
2019-May-11 06:01N 50°58' E 001°45'4 7.4
2019-May-11 05:30N 50°58' E 001°51'0 0.0
2019-May-11 05:00N 50°58' E 001°51'1 1.2
2019-May-11 04:30N 50°58' E 001°50'917.0
2019-May-11 04:00N 50°59' E 001°37'815.3
2019-May-11 03:31N 51°04' E 001°28'5 3.2
2019-May-11 01:55N 51°07' E 001°22'615.2
2019-May-11 01:30N 51°04' E 001°31'816.9
2019-May-11 01:00N 50°60' E 001°42'612.1
2019-May-11 00:30N 50°58' E 001°51'0 0.4
2019-May-11 00:01N 50°58' E 001°51'1 1.6
2019-May-10 23:30N 50°58' E 001°50'714.3
2019-May-10 23:01N 50°59' E 001°39'815.7
2019-May-10 22:30N 51°04' E 001°29'7 4.7
2019-May-10 21:07N 51°07' E 001°20'1 9.8
2019-May-10 21:00N 51°07' E 001°22'816.6
2019-May-10 20:31N 51°04' E 001°34'917.2
2019-May-10 20:00N 50°58' E 001°45'4 8.3
2019-May-10 19:30N 50°58' E 001°51'0 0.0
2019-May-10 19:00N 50°58' E 001°51'1 1.4
2019-May-10 18:30N 50°58' E 001°50'918.0
2019-May-10 18:01N 50°59' E 001°36'1019.5
2019-May-10 17:30N 51°05' E 001°24'3 5.6
2019-May-10 16:54N 51°07' E 001°20'0 0.1
2019-May-10 16:27N 51°07' E 001°20'512.1
2019-May-10 16:00N 51°06' E 001°28'  

Dump ship's entire track history